createdAt,value
2023-03-20T00:00:52.655Z,25.20
2023-03-20T00:01:54.295Z,27.28
2023-03-20T00:02:56.460Z,27.92
2023-03-20T00:03:58.144Z,27.87
2023-03-20T00:04:59.819Z,28.52
2023-03-20T00:06:01.583Z,28.23
2023-03-20T00:07:03.164Z,25.90
2023-03-20T00:08:05.135Z,24.35
2023-03-20T00:09:07.207Z,21.73
2023-03-20T00:10:09.725Z,19.27
2023-03-20T00:11:34.296Z,19.53
2023-03-20T00:12:36.153Z,30.43
2023-03-20T00:13:38.084Z,29.25
2023-03-20T00:14:40.575Z,30.08
2023-03-20T00:15:43.940Z,28.75
2023-03-20T00:16:47.693Z,25.45
2023-03-20T00:17:49.531Z,23.45
2023-03-20T00:18:51.090Z,25.05
2023-03-20T00:19:52.634Z,26.28
2023-03-20T00:20:54.192Z,26.38
2023-03-20T00:21:56.084Z,25.88
2023-03-20T00:22:57.870Z,25.32
2023-03-20T00:23:59.577Z,25.43
2023-03-20T00:25:01.141Z,25.20
2023-03-20T00:26:02.725Z,24.82
2023-03-20T00:27:04.669Z,24.13
2023-03-20T00:28:27.423Z,22.90
2023-03-20T00:29:31.448Z,23.90
2023-03-20T00:30:33.054Z,23.12
2023-03-20T00:31:36.736Z,22.22
2023-03-20T00:32:38.660Z,21.27
2023-03-20T00:33:40.214Z,19.95
2023-03-20T00:34:41.868Z,18.37
2023-03-20T00:35:43.508Z,17.13
2023-03-20T00:36:45.116Z,16.85
2023-03-20T00:37:47.025Z,16.68
2023-03-20T00:38:51.067Z,15.63
2023-03-20T00:39:52.661Z,13.75
2023-03-20T00:40:54.201Z,13.90
2023-03-20T00:42:00.535Z,16.50
2023-03-20T00:43:03.665Z,19.92
2023-03-20T00:44:29.893Z,19.62
2023-03-20T00:45:35.219Z,21.98
2023-03-20T00:46:39.720Z,21.57
2023-03-20T00:47:41.549Z,21.82
2023-03-20T00:48:44.102Z,21.93
2023-03-20T00:49:48.204Z,21.98
2023-03-20T00:50:49.848Z,22.05
2023-03-20T00:51:51.436Z,22.73
2023-03-20T00:52:53.374Z,22.55
2023-03-20T00:53:55.082Z,24.95
2023-03-20T00:54:56.719Z,27.70
2023-03-20T00:55:58.363Z,27.72
2023-03-20T00:57:02.634Z,26.52
2023-03-20T00:58:05.283Z,27.13
2023-03-20T00:59:14.681Z,29.00
2023-03-20T01:00:38.186Z,26.23
2023-03-20T01:01:39.895Z,25.57
2023-03-20T01:02:41.529Z,24.97
2023-03-20T01:03:43.760Z,22.42
2023-03-20T01:04:45.567Z,22.12
2023-03-20T01:05:48.554Z,21.82
2023-03-20T01:06:50.154Z,21.93
2023-03-20T01:07:51.690Z,20.52
2023-03-20T01:08:53.235Z,20.18
2023-03-20T01:09:54.882Z,18.00
2023-03-20T01:10:58.716Z,17.08
2023-03-20T01:12:01.202Z,17.23
2023-03-20T01:13:02.896Z,16.97
2023-03-20T01:14:05.890Z,17.67
2023-03-20T01:15:23.864Z,18.70
2023-03-20T01:16:26.943Z,16.85
2023-03-20T01:17:28.951Z,16.48
2023-03-20T01:18:30.530Z,16.32
2023-03-20T01:19:32.092Z,15.95
2023-03-20T01:20:34.053Z,16.52
2023-03-20T01:21:35.687Z,17.52
2023-03-20T01:22:37.234Z,17.90
2023-03-20T01:23:38.790Z,17.53
2023-03-20T01:24:40.810Z,18.03
2023-03-20T01:25:42.739Z,18.55
2023-03-20T01:26:45.665Z,18.58
2023-03-20T01:27:51.646Z,17.62
2023-03-20T01:28:53.258Z,18.48
2023-03-20T01:29:57.336Z,18.37
2023-03-20T01:30:59.065Z,18.18
2023-03-20T01:32:00.702Z,17.02
2023-03-20T01:33:12.020Z,17.58
2023-03-20T01:34:13.913Z,17.75
2023-03-20T01:35:18.201Z,15.98
2023-03-20T01:36:22.663Z,16.52
2023-03-20T01:37:26.978Z,15.67
2023-03-20T01:38:28.778Z,14.60
2023-03-20T01:39:35.593Z,14.77
2023-03-20T01:40:51.280Z,14.50
2023-03-20T01:41:53.740Z,14.35
2023-03-20T01:42:55.265Z,14.17
2023-03-20T01:43:56.848Z,13.33
2023-03-20T01:44:58.421Z,12.73
2023-03-20T01:46:12.032Z,12.57
2023-03-20T01:47:23.505Z,11.68
2023-03-20T01:48:35.712Z,10.23
2023-03-20T01:50:14.757Z,11.57
2023-03-20T01:51:17.545Z,22.53
2023-03-20T01:52:19.139Z,24.53
2023-03-20T01:53:24.680Z,19.87
2023-03-20T01:54:39.533Z,17.95
2023-03-20T01:55:43.145Z,17.93
2023-03-20T01:56:51.901Z,17.47
2023-03-20T01:57:57.551Z,17.93
2023-03-20T01:59:07.966Z,17.92
2023-03-20T02:00:12.271Z,16.83
2023-03-20T02:01:14.797Z,16.37
2023-03-20T02:02:21.991Z,16.57
2023-03-20T02:03:24.516Z,22.25
2023-03-20T02:04:32.474Z,30.18
2023-03-20T02:05:37.892Z,23.88
2023-03-20T02:06:40.472Z,20.93
2023-03-20T02:07:49.783Z,20.82
2023-03-20T02:08:53.040Z,19.35
2023-03-20T02:09:54.660Z,19.00
2023-03-20T02:10:59.465Z,19.08
2023-03-20T02:12:02.593Z,18.35
2023-03-20T02:13:04.790Z,18.30
2023-03-20T02:14:08.035Z,17.32
2023-03-20T02:15:11.317Z,19.65
2023-03-20T02:16:15.172Z,19.45
2023-03-20T02:17:16.886Z,17.85
2023-03-20T02:18:18.683Z,18.10
2023-03-20T02:19:43.762Z,17.93
2023-03-20T02:21:00.740Z,15.38
2023-03-20T02:22:39.621Z,13.93
2023-03-20T02:24:02.097Z,15.10
2023-03-20T02:25:48.113Z,14.43
2023-03-20T02:27:23.267Z,14.97
2023-03-20T02:28:46.131Z,16.15
2023-03-20T02:29:50.739Z,13.18
2023-03-20T02:31:10.489Z,13.70
2023-03-20T02:32:40.774Z,14.22
2023-03-20T02:33:52.835Z,14.63
2023-03-20T02:35:13.901Z,16.00
2023-03-20T02:36:32.048Z,15.32
2023-03-20T02:38:04.611Z,15.20
2023-03-20T02:39:14.041Z,15.78
2023-03-20T02:40:34.787Z,15.93
2023-03-20T02:41:47.394Z,23.02
2023-03-20T02:43:03.918Z,23.15
2023-03-20T02:44:23.635Z,32.55
2023-03-20T02:45:38.783Z,33.52
2023-03-20T02:46:51.831Z,34.23
2023-03-20T02:48:13.385Z,31.58
2023-03-20T02:49:15.003Z,23.08
2023-03-20T02:50:47.366Z,19.10
2023-03-20T02:51:54.495Z,16.48
2023-03-20T02:53:20.512Z,17.23
2023-03-20T02:54:41.775Z,18.43
2023-03-20T02:56:03.590Z,18.27
2023-03-20T02:57:28.016Z,17.20
2023-03-20T02:58:44.094Z,15.27
2023-03-20T02:59:51.347Z,14.95
2023-03-20T03:01:08.900Z,14.37
2023-03-20T03:02:34.952Z,13.00
2023-03-20T03:03:50.218Z,11.47
2023-03-20T03:04:58.991Z,9.85
2023-03-20T03:06:09.753Z,10.28
2023-03-20T03:07:15.158Z,9.90
2023-03-20T03:08:21.738Z,10.20
2023-03-20T03:09:34.490Z,9.73
2023-03-20T03:10:41.470Z,9.92
2023-03-20T03:11:55.163Z,9.52
2023-03-20T03:13:00.909Z,9.73
2023-03-20T03:14:04.709Z,9.63
2023-03-20T03:15:24.770Z,9.52
2023-03-20T03:16:30.962Z,9.32
2023-03-20T03:17:37.916Z,10.18
2023-03-20T03:18:42.862Z,10.13
2023-03-20T03:19:49.993Z,10.20
2023-03-20T03:20:57.867Z,10.55
2023-03-20T03:21:59.640Z,10.07
2023-03-20T03:23:02.382Z,10.60
2023-03-20T03:24:04.674Z,11.13
2023-03-20T03:25:06.714Z,10.50
2023-03-20T03:26:16.427Z,12.32
2023-03-20T03:27:28.902Z,12.67
2023-03-20T03:28:37.993Z,12.55
2023-03-20T03:29:41.873Z,12.68
2023-03-20T03:30:44.597Z,13.12
2023-03-20T03:31:46.858Z,13.37
2023-03-20T03:33:06.891Z,14.35
2023-03-20T03:34:16.590Z,17.63
2023-03-20T03:35:21.174Z,18.35
2023-03-20T03:36:45.783Z,17.02
2023-03-20T03:37:53.022Z,15.95
2023-03-20T03:38:58.096Z,16.30
2023-03-20T03:40:14.433Z,16.60
2023-03-20T03:41:28.055Z,14.93
2023-03-20T03:43:07.020Z,15.62
2023-03-20T03:44:26.416Z,15.85
2023-03-20T03:45:38.151Z,15.00
2023-03-20T03:46:52.336Z,15.07
2023-03-20T03:48:11.535Z,14.67
2023-03-20T03:49:20.681Z,15.07
2023-03-20T03:50:28.586Z,15.82
2023-03-20T03:51:34.943Z,14.78
2023-03-20T03:52:40.155Z,14.20
2023-03-20T03:53:50.583Z,13.62
2023-03-20T03:55:25.664Z,12.32
2023-03-20T03:56:32.631Z,11.37
2023-03-20T03:57:42.351Z,11.52
2023-03-20T03:58:51.958Z,11.23
2023-03-20T03:59:56.390Z,10.53
2023-03-20T04:01:00.337Z,10.87
2023-03-20T04:02:03.991Z,10.98
2023-03-20T04:03:07.741Z,10.22
2023-03-20T04:04:12.553Z,10.43
2023-03-20T04:05:18.597Z,10.52
2023-03-20T04:06:21.149Z,10.45
2023-03-20T04:07:26.201Z,11.30
2023-03-20T04:08:28.014Z,11.22
2023-03-20T04:09:29.623Z,11.32
2023-03-20T04:10:31.380Z,11.78
2023-03-20T04:11:33.178Z,11.92
2023-03-20T04:12:40.500Z,11.68
2023-03-20T04:13:42.190Z,12.00
2023-03-20T04:14:43.859Z,11.42
2023-03-20T04:15:45.435Z,11.53
2023-03-20T04:16:47.182Z,11.37
2023-03-20T04:17:48.883Z,11.70
2023-03-20T04:18:51.733Z,12.13
2023-03-20T04:19:53.313Z,12.90
2023-03-20T04:20:54.868Z,12.92
2023-03-20T04:21:56.419Z,13.50
2023-03-20T04:22:58.081Z,13.30
2023-03-20T04:24:00.155Z,12.77
2023-03-20T04:25:03.433Z,13.42
2023-03-20T04:26:05.944Z,13.52
2023-03-20T04:27:07.596Z,13.03
2023-03-20T04:28:09.295Z,13.20
2023-03-20T04:29:11.019Z,12.73
2023-03-20T04:30:13.465Z,12.15
2023-03-20T04:31:15.036Z,12.35
2023-03-20T04:32:16.662Z,12.40
2023-03-20T04:33:18.280Z,12.25
2023-03-20T04:34:19.929Z,12.77
2023-03-20T04:35:21.488Z,11.92
2023-03-20T04:36:23.042Z,11.57
2023-03-20T04:37:24.640Z,11.10
2023-03-20T04:38:26.643Z,11.30
2023-03-20T04:39:28.475Z,11.30
2023-03-20T04:40:30.042Z,10.95
2023-03-20T04:41:31.583Z,10.97
2023-03-20T04:42:33.234Z,10.03
2023-03-20T04:43:34.814Z,10.23
2023-03-20T04:44:36.608Z,10.20
2023-03-20T04:45:38.904Z,9.52
2023-03-20T04:46:40.660Z,9.78
2023-03-20T04:47:42.212Z,8.95
2023-03-20T04:48:43.810Z,9.27
2023-03-20T04:49:45.496Z,9.65
2023-03-20T04:50:47.387Z,9.52
2023-03-20T04:51:49.316Z,8.97
2023-03-20T04:52:50.880Z,9.22
2023-03-20T04:53:52.513Z,9.37
2023-03-20T04:54:54.093Z,9.78
2023-03-20T04:55:55.663Z,9.60
2023-03-20T04:56:57.293Z,10.23
2023-03-20T04:57:58.856Z,10.00
2023-03-20T04:59:00.446Z,8.97
2023-03-20T05:00:02.100Z,9.25
2023-03-20T05:01:03.728Z,9.37
2023-03-20T05:02:05.392Z,10.23
2023-03-20T05:03:06.941Z,10.17
2023-03-20T05:04:08.678Z,10.02
2023-03-20T05:05:10.793Z,9.27
2023-03-20T05:06:12.349Z,9.82
2023-03-20T05:07:13.902Z,10.50
2023-03-20T05:08:15.464Z,9.98
2023-03-20T05:09:17.122Z,9.82
2023-03-20T05:10:19.060Z,10.05
2023-03-20T05:11:20.648Z,9.73
2023-03-20T05:12:22.231Z,9.73
2023-03-20T05:13:23.835Z,10.02
2023-03-20T05:14:25.584Z,9.88
2023-03-20T05:15:27.179Z,10.02
2023-03-20T05:16:28.761Z,9.92
2023-03-20T05:17:30.351Z,10.57
2023-03-20T05:18:31.940Z,9.60
2023-03-20T05:19:33.652Z,13.23
2023-03-20T05:20:35.743Z,19.38
2023-03-20T05:21:37.295Z,20.50
2023-03-20T05:22:38.810Z,22.35
2023-03-20T05:23:40.382Z,17.20
2023-03-20T05:24:42.318Z,16.05
2023-03-20T05:25:44.556Z,18.77
2023-03-20T05:26:46.206Z,18.00
2023-03-20T05:27:47.764Z,14.05
2023-03-20T05:28:49.399Z,13.25
2023-03-20T05:29:51.281Z,13.28
2023-03-20T05:30:52.935Z,12.88
2023-03-20T05:31:54.557Z,12.70
2023-03-20T05:32:56.964Z,12.72
2023-03-20T05:33:58.878Z,13.10
2023-03-20T05:35:00.518Z,13.32
2023-03-20T05:36:02.222Z,13.95
2023-03-20T05:37:03.805Z,14.08
2023-03-20T05:38:05.405Z,13.43
2023-03-20T05:39:07.131Z,13.53
2023-03-20T05:40:12.494Z,14.52
2023-03-20T05:41:14.071Z,14.57
2023-03-20T05:42:15.618Z,15.90
2023-03-20T05:43:17.193Z,16.97
2023-03-20T05:44:18.757Z,16.03
2023-03-20T05:45:20.567Z,16.25
2023-03-20T05:46:23.193Z,17.10
2023-03-20T05:47:26.133Z,18.57
2023-03-20T05:48:27.901Z,17.93
2023-03-20T05:49:29.437Z,18.40
2023-03-20T05:50:31.134Z,18.53
2023-03-20T05:51:32.809Z,19.32
2023-03-20T05:52:34.393Z,18.70
2023-03-20T05:53:35.959Z,17.02
2023-03-20T05:54:37.584Z,17.68
2023-03-20T05:55:39.215Z,18.10
2023-03-20T05:56:40.855Z,17.75
2023-03-20T05:57:42.485Z,17.63
2023-03-20T05:58:44.016Z,15.85
2023-03-20T05:59:45.579Z,15.02
2023-03-20T06:00:47.427Z,18.52
2023-03-20T06:01:49.043Z,18.90
2023-03-20T06:02:50.688Z,19.10
2023-03-20T06:03:52.322Z,18.77
2023-03-20T06:04:55.429Z,16.57
2023-03-20T06:05:57.041Z,15.12
2023-03-20T06:06:58.835Z,14.47
2023-03-20T06:08:00.438Z,12.78
2023-03-20T06:09:01.975Z,13.25
2023-03-20T06:10:03.822Z,15.40
2023-03-20T06:11:05.594Z,24.40
2023-03-20T06:12:07.715Z,22.83
2023-03-20T06:13:09.345Z,22.53
2023-03-20T06:14:10.914Z,20.45
2023-03-20T06:15:12.850Z,18.90
2023-03-20T06:16:14.467Z,18.92
2023-03-20T06:17:16.104Z,17.98
2023-03-20T06:18:17.694Z,14.85
2023-03-20T06:19:19.602Z,13.27
2023-03-20T06:20:21.358Z,13.82
2023-03-20T06:21:22.864Z,13.63
2023-03-20T06:22:24.423Z,13.37
2023-03-20T06:23:25.997Z,13.17
2023-03-20T06:24:27.655Z,14.40
2023-03-20T06:25:29.265Z,15.93
2023-03-20T06:26:30.841Z,16.40
2023-03-20T06:27:32.477Z,14.58
2023-03-20T06:28:34.519Z,17.60
2023-03-20T06:29:36.071Z,21.88
2023-03-20T06:30:37.962Z,23.00
2023-03-20T06:31:39.832Z,22.20
2023-03-20T06:32:41.491Z,19.52
2023-03-20T06:33:43.249Z,18.77
2023-03-20T06:34:44.828Z,17.65
2023-03-20T06:35:47.522Z,17.68
2023-03-20T06:36:49.114Z,18.77
2023-03-20T06:37:50.711Z,18.12
2023-03-20T06:38:52.373Z,17.45
2023-03-20T06:39:53.941Z,18.02
2023-03-20T06:40:55.644Z,17.68
2023-03-20T06:41:57.192Z,18.25
2023-03-20T06:42:58.790Z,16.62
2023-03-20T06:44:00.371Z,18.15
2023-03-20T06:45:02.243Z,21.78
2023-03-20T06:46:03.965Z,20.20
2023-03-20T06:47:05.568Z,16.43
2023-03-20T06:48:10.290Z,14.90
2023-03-20T06:49:11.882Z,14.20
2023-03-20T06:50:14.279Z,14.37
2023-03-20T06:51:15.870Z,15.02
2023-03-20T06:52:19.797Z,15.18
2023-03-20T06:53:22.213Z,16.23
2023-03-20T06:54:23.787Z,15.73
2023-03-20T06:55:25.481Z,14.05
2023-03-20T06:56:27.171Z,13.13
2023-03-20T06:57:28.759Z,13.37
2023-03-20T06:58:30.403Z,12.62
2023-03-20T06:59:32.010Z,12.98
2023-03-20T07:00:33.876Z,13.07
2023-03-20T07:01:35.506Z,12.30
2023-03-20T07:02:37.113Z,12.27
2023-03-20T07:03:39.461Z,12.12
2023-03-20T07:04:41.123Z,12.23
2023-03-20T07:05:42.933Z,11.98
2023-03-20T07:06:44.468Z,12.52
2023-03-20T07:07:46.081Z,12.25
2023-03-20T07:08:47.693Z,12.12
2023-03-20T07:09:49.344Z,12.73
2023-03-20T07:10:51.162Z,13.12
2023-03-20T07:11:52.748Z,13.65
2023-03-20T07:12:54.341Z,13.68
2023-03-20T07:13:56.036Z,14.20
2023-03-20T07:14:57.644Z,14.50
2023-03-20T07:16:04.801Z,14.18
2023-03-20T07:17:06.799Z,15.88
2023-03-20T07:18:08.406Z,13.65
2023-03-20T07:19:09.984Z,13.85
2023-03-20T07:20:12.190Z,12.33
2023-03-20T07:21:20.308Z,12.40
2023-03-20T07:22:25.501Z,14.68
2023-03-20T07:23:27.121Z,16.07
2023-03-20T07:24:28.692Z,15.72
2023-03-20T07:25:41.839Z,17.12
2023-03-20T07:26:44.495Z,16.40
2023-03-20T07:27:46.080Z,16.83
2023-03-20T07:28:47.714Z,17.03
2023-03-20T07:29:49.615Z,16.17
2023-03-20T07:30:51.434Z,15.08
2023-03-20T07:31:53.360Z,15.18
2023-03-20T07:32:55.076Z,14.85
2023-03-20T07:33:56.916Z,13.28
2023-03-20T07:34:58.670Z,12.60
2023-03-20T07:36:00.347Z,12.75
2023-03-20T07:37:02.356Z,12.18
2023-03-20T07:38:03.926Z,12.22
2023-03-20T07:39:05.554Z,12.17
2023-03-20T07:40:07.596Z,12.00
2023-03-20T07:41:09.268Z,12.03
2023-03-20T07:42:11.140Z,11.40
2023-03-20T07:43:12.700Z,11.22
2023-03-20T07:44:14.281Z,10.82
2023-03-20T07:45:15.917Z,11.15
2023-03-20T07:46:17.516Z,11.42
2023-03-20T07:47:19.155Z,11.43
2023-03-20T07:48:20.736Z,11.08
2023-03-20T07:49:22.325Z,10.33
2023-03-20T07:50:23.904Z,10.85
2023-03-20T07:51:25.592Z,11.55
2023-03-20T07:52:27.330Z,10.93
2023-03-20T07:53:28.895Z,10.58
2023-03-20T07:54:30.514Z,10.85
2023-03-20T07:55:32.072Z,11.07
2023-03-20T07:56:33.620Z,11.48
2023-03-20T07:57:35.264Z,11.37
2023-03-20T07:58:36.900Z,11.22
2023-03-20T07:59:38.457Z,11.23
2023-03-20T08:00:40.260Z,11.32
2023-03-20T08:01:41.892Z,11.55
2023-03-20T08:02:43.632Z,11.63
2023-03-20T08:03:45.396Z,11.63
2023-03-20T08:04:46.956Z,11.52
2023-03-20T08:05:48.573Z,11.67
2023-03-20T08:06:51.194Z,11.72
2023-03-20T08:07:53.298Z,11.12
2023-03-20T08:08:55.155Z,11.32
2023-03-20T08:09:56.697Z,10.87
2023-03-20T08:10:58.303Z,11.03
2023-03-20T08:11:59.839Z,10.12
2023-03-20T08:13:01.630Z,10.12
2023-03-20T08:14:03.209Z,10.30
2023-03-20T08:15:05.085Z,10.57
2023-03-20T08:16:07.268Z,11.18
2023-03-20T08:17:15.078Z,11.10
2023-03-20T08:18:18.258Z,12.18
2023-03-20T08:19:19.846Z,12.92
2023-03-20T08:20:21.421Z,12.22
2023-03-20T08:21:22.973Z,11.70
2023-03-20T08:22:24.615Z,11.78
2023-03-20T08:23:26.465Z,11.90
2023-03-20T08:24:28.289Z,12.30
2023-03-20T08:25:29.874Z,12.88
2023-03-20T08:26:31.591Z,11.90
2023-03-20T08:27:33.132Z,11.55
2023-03-20T08:28:46.545Z,11.57
2023-03-20T08:29:49.252Z,10.95
2023-03-20T08:30:50.903Z,11.18
2023-03-20T08:31:52.565Z,11.62
2023-03-20T08:32:54.320Z,11.48
2023-03-20T08:33:56.974Z,11.12
2023-03-20T08:34:58.585Z,10.63
2023-03-20T08:36:00.517Z,10.62
2023-03-20T08:37:05.435Z,10.73
2023-03-20T08:38:07.054Z,10.82
2023-03-20T08:39:08.780Z,26.07
2023-03-20T08:40:11.137Z,10.55
2023-03-20T08:41:12.742Z,8.95
2023-03-20T08:42:15.206Z,10.82
2023-03-20T08:43:17.379Z,9.43
2023-03-20T08:44:19.168Z,8.05
2023-03-20T08:45:20.822Z,7.43
2023-03-20T08:46:22.463Z,6.92
2023-03-20T08:47:24.089Z,9.75
2023-03-20T08:48:25.744Z,15.08
2023-03-20T08:49:27.701Z,10.10
2023-03-20T08:50:29.273Z,8.45
2023-03-20T08:51:30.919Z,19.58
2023-03-20T08:52:32.464Z,10.32
2023-03-20T08:53:34.536Z,7.25
2023-03-20T08:54:36.278Z,7.25
2023-03-20T08:55:38.045Z,7.93
2023-03-20T08:56:39.741Z,7.87
2023-03-20T08:57:41.645Z,8.72
2023-03-20T08:58:43.436Z,8.32
2023-03-20T08:59:45.326Z,11.03
2023-03-20T09:00:47.678Z,8.38
2023-03-20T09:01:50.431Z,7.95
2023-03-20T09:02:52.305Z,9.13
2023-03-20T09:03:54.005Z,8.92
2023-03-20T09:04:55.769Z,9.85
2023-03-20T09:05:57.553Z,8.92
2023-03-20T09:06:59.291Z,7.92
2023-03-20T09:08:00.879Z,8.22
2023-03-20T09:09:02.566Z,8.75
2023-03-20T09:10:05.393Z,8.17
2023-03-20T09:11:07.227Z,8.38
2023-03-20T09:12:09.717Z,8.08
2023-03-20T09:13:26.788Z,8.18
2023-03-20T09:14:30.670Z,7.57
2023-03-20T09:15:32.352Z,7.92
2023-03-20T09:16:34.031Z,8.72
2023-03-20T09:17:35.724Z,8.35
2023-03-20T09:18:37.281Z,7.88
2023-03-20T09:19:38.842Z,8.87
2023-03-20T09:20:40.597Z,8.55
2023-03-20T09:21:42.172Z,8.15
2023-03-20T09:22:43.799Z,8.17
2023-03-20T09:23:45.432Z,8.55
2023-03-20T09:24:47.061Z,8.13
2023-03-20T09:25:48.924Z,8.10
2023-03-20T09:26:50.461Z,7.95
2023-03-20T09:27:55.082Z,8.57
2023-03-20T09:28:56.669Z,8.30
2023-03-20T09:29:58.258Z,8.28
2023-03-20T09:31:00.644Z,8.13
2023-03-20T09:32:02.370Z,8.35
2023-03-20T09:33:03.997Z,8.42
2023-03-20T09:34:05.784Z,12.60
2023-03-20T09:35:07.690Z,14.67
2023-03-20T09:36:09.641Z,9.33
2023-03-20T09:37:11.284Z,8.48
2023-03-20T09:38:13.129Z,8.37
2023-03-20T09:39:14.684Z,8.48
2023-03-20T09:40:30.822Z,8.67
2023-03-20T09:41:32.593Z,8.30
2023-03-20T09:42:56.726Z,8.38
2023-03-20T09:44:08.298Z,8.30
2023-03-20T09:45:17.684Z,8.47
2023-03-20T09:46:51.855Z,8.02
2023-03-20T09:48:31.951Z,8.22
2023-03-20T09:50:07.069Z,8.33
2023-03-20T09:51:22.088Z,8.57
2023-03-20T09:52:38.794Z,11.02
2023-03-20T09:54:11.917Z,8.58
2023-03-20T09:55:17.612Z,9.08
2023-03-20T09:56:26.423Z,8.83
2023-03-20T09:57:35.828Z,8.75
2023-03-20T09:58:39.185Z,8.48
2023-03-20T09:59:41.105Z,8.18
2023-03-20T10:00:46.362Z,8.38
2023-03-20T10:01:58.947Z,9.55
2023-03-20T10:03:04.751Z,8.83
2023-03-20T10:04:10.698Z,8.95
2023-03-20T10:05:26.093Z,9.03
2023-03-20T10:06:28.081Z,14.98
2023-03-20T10:07:29.825Z,10.95
2023-03-20T10:08:37.206Z,12.80
2023-03-20T10:09:38.882Z,14.00
2023-03-20T10:10:57.949Z,11.07
2023-03-20T10:12:33.048Z,9.22
2023-03-20T10:13:37.611Z,8.53
2023-03-20T10:14:48.090Z,8.93
2023-03-20T10:16:07.370Z,10.40
2023-03-20T10:17:28.695Z,9.05
2023-03-20T10:18:37.880Z,8.80
2023-03-20T10:19:52.442Z,8.63
2023-03-20T10:21:06.987Z,8.73
2023-03-20T10:22:21.766Z,8.88
2023-03-20T10:23:49.972Z,8.73
2023-03-20T10:25:03.933Z,8.50
2023-03-20T10:26:21.057Z,8.75
2023-03-20T10:27:28.063Z,8.93
2023-03-20T10:28:36.282Z,8.85
2023-03-20T10:30:16.919Z,9.43
2023-03-20T10:31:43.396Z,10.30
2023-03-20T10:33:03.047Z,9.63
2023-03-20T10:34:04.600Z,9.33
2023-03-20T10:35:28.152Z,9.42
2023-03-20T10:36:47.985Z,10.22
2023-03-20T10:38:04.478Z,10.12
2023-03-20T10:39:15.265Z,9.25
2023-03-20T10:40:28.862Z,9.17
2023-03-20T10:41:37.932Z,11.63
2023-03-20T10:42:44.694Z,17.80
2023-03-20T10:43:49.364Z,10.37
2023-03-20T10:44:59.542Z,8.97
2023-03-20T10:46:04.735Z,11.22
2023-03-20T10:47:13.769Z,12.05
2023-03-20T10:48:30.130Z,11.08
2023-03-20T10:49:42.051Z,12.15
2023-03-20T10:51:03.094Z,13.37
2023-03-20T10:52:18.276Z,13.12
2023-03-20T10:53:30.321Z,16.92
2023-03-20T10:54:37.291Z,10.72
2023-03-20T10:55:42.712Z,9.75
2023-03-20T10:56:48.401Z,8.88
2023-03-20T10:58:22.089Z,9.17
2023-03-20T10:59:32.624Z,9.10
2023-03-20T11:00:34.397Z,15.50
2023-03-20T11:01:36.153Z,15.60
2023-03-20T11:02:37.807Z,10.67
2023-03-20T11:03:39.400Z,25.68
2023-03-20T11:04:41.119Z,14.57
2023-03-20T11:05:42.896Z,10.72
2023-03-20T11:07:18.199Z,12.10
2023-03-20T11:08:30.442Z,10.48
2023-03-20T11:09:32.045Z,9.38
2023-03-20T11:10:36.388Z,9.85
2023-03-20T11:11:39.473Z,9.77
2023-03-20T11:12:44.096Z,9.98
2023-03-20T11:13:45.661Z,9.88
2023-03-20T11:14:47.223Z,9.20
2023-03-20T11:15:51.489Z,17.25
2023-03-20T11:16:55.809Z,15.08
2023-03-20T11:18:00.811Z,10.05
2023-03-20T11:19:07.620Z,9.97
2023-03-20T11:20:13.845Z,9.95
2023-03-20T11:21:20.125Z,9.48
2023-03-20T11:22:21.631Z,10.23
2023-03-20T11:23:37.251Z,9.77
2023-03-20T11:24:47.021Z,10.10
2023-03-20T11:26:26.774Z,9.80
2023-03-20T11:27:34.233Z,17.63
2023-03-20T11:28:38.206Z,16.63
2023-03-20T11:29:45.182Z,11.17
2023-03-20T11:31:04.131Z,10.08
2023-03-20T11:32:27.136Z,11.10
2023-03-20T11:33:30.190Z,9.73
2023-03-20T11:34:34.256Z,9.67
2023-03-20T11:35:35.994Z,9.43
2023-03-20T11:36:38.212Z,9.45
2023-03-20T11:37:45.754Z,9.28
2023-03-20T11:38:47.813Z,9.88
2023-03-20T11:40:01.079Z,9.92
2023-03-20T11:41:05.087Z,9.83
2023-03-20T11:42:23.472Z,18.97
2023-03-20T11:43:26.414Z,13.78
2023-03-20T11:44:33.444Z,11.53
2023-03-20T11:46:12.802Z,10.83
2023-03-20T11:47:25.001Z,13.32
2023-03-20T11:48:44.404Z,10.38
2023-03-20T11:50:05.988Z,16.52
2023-03-20T11:51:16.668Z,10.20
2023-03-20T11:52:24.678Z,10.32
2023-03-20T11:53:38.466Z,10.33
2023-03-20T11:54:54.482Z,10.93
2023-03-20T11:56:29.443Z,13.52
2023-03-20T11:57:42.517Z,22.23
2023-03-20T11:58:59.200Z,11.17
2023-03-20T12:00:07.765Z,10.33
2023-03-20T12:01:12.566Z,28.17
2023-03-20T12:02:23.059Z,56.08
2023-03-20T12:03:50.454Z,23.90
2023-03-20T12:04:52.037Z,12.07
2023-03-20T12:06:00.462Z,18.53
2023-03-20T12:07:18.166Z,33.52
2023-03-20T12:08:27.624Z,23.15
2023-03-20T12:09:56.988Z,13.37
2023-03-20T12:11:18.354Z,12.85
2023-03-20T12:12:42.163Z,12.42
2023-03-20T12:13:46.829Z,13.52
2023-03-20T12:15:00.468Z,12.43
2023-03-20T12:16:07.825Z,12.40
2023-03-20T12:17:41.774Z,13.80
2023-03-20T12:19:04.406Z,55.05
2023-03-20T12:20:12.741Z,27.52
2023-03-20T12:21:26.866Z,55.77
2023-03-20T12:22:42.832Z,29.48
2023-03-20T12:24:00.319Z,14.28
2023-03-20T12:25:13.030Z,13.68
2023-03-20T12:26:23.438Z,14.33
2023-03-20T12:27:42.923Z,17.58
2023-03-20T12:28:53.206Z,13.27
2023-03-20T12:30:11.793Z,13.48
2023-03-20T12:31:25.448Z,13.25
2023-03-20T12:32:34.110Z,13.05
2023-03-20T12:33:51.529Z,12.38
2023-03-20T12:35:02.497Z,13.93
2023-03-20T12:36:12.324Z,12.78
2023-03-20T12:37:15.428Z,12.70
2023-03-20T12:38:25.997Z,13.90
2023-03-20T12:39:35.152Z,15.57
2023-03-20T12:40:43.836Z,48.78
2023-03-20T12:42:06.941Z,34.88
2023-03-20T12:43:16.266Z,15.40
2023-03-20T12:44:28.967Z,14.90
2023-03-20T12:45:37.163Z,18.25
2023-03-20T12:46:44.804Z,14.23
2023-03-20T12:48:04.761Z,25.45
2023-03-20T12:49:24.690Z,17.25
2023-03-20T12:50:45.083Z,14.90
2023-03-20T12:52:07.321Z,27.60
2023-03-20T12:53:36.342Z,14.67
2023-03-20T12:55:05.231Z,33.87
2023-03-20T12:56:24.920Z,14.85
2023-03-20T12:57:46.592Z,18.10
2023-03-20T12:58:54.980Z,14.58
2023-03-20T13:00:02.364Z,15.17
2023-03-20T13:01:27.843Z,22.23
2023-03-20T13:02:56.862Z,18.33
2023-03-20T13:04:01.487Z,14.85
2023-03-20T13:05:33.367Z,14.22
2023-03-20T13:06:45.679Z,14.60
2023-03-20T13:08:10.287Z,13.98
2023-03-20T13:09:49.462Z,15.05
2023-03-20T13:11:17.618Z,17.78
2023-03-20T13:12:43.556Z,15.38
2023-03-20T13:13:56.354Z,15.47
2023-03-20T13:15:00.521Z,18.37
2023-03-20T13:16:20.303Z,22.43
2023-03-20T13:17:21.830Z,17.67
2023-03-20T13:18:35.485Z,15.87
2023-03-20T13:20:06.864Z,15.35
2023-03-20T13:21:33.370Z,25.40
2023-03-20T13:23:05.466Z,15.93
2023-03-20T13:24:27.217Z,15.65
2023-03-20T13:26:03.416Z,37.88
2023-03-20T13:27:10.874Z,15.73
2023-03-20T13:28:28.320Z,15.13
2023-03-20T13:29:38.675Z,20.38
2023-03-20T13:30:51.935Z,15.58
2023-03-20T13:32:16.433Z,14.07
2023-03-20T13:33:36.388Z,25.20
2023-03-20T13:35:06.035Z,19.25
2023-03-20T13:36:07.617Z,14.53
2023-03-20T13:37:23.884Z,14.87
2023-03-20T13:38:37.852Z,15.32
2023-03-20T13:39:59.454Z,15.25
2023-03-20T13:41:05.461Z,14.43
2023-03-20T13:42:14.768Z,15.10
2023-03-20T13:43:35.100Z,15.97
2023-03-20T13:44:38.173Z,16.23
2023-03-20T13:45:42.095Z,17.42
2023-03-20T13:46:54.788Z,15.70
2023-03-20T13:47:58.533Z,15.72
2023-03-20T13:49:12.332Z,14.63
2023-03-20T13:50:37.173Z,14.70
2023-03-20T13:51:49.107Z,15.67
2023-03-20T13:53:18.090Z,14.92
2023-03-20T13:54:32.016Z,14.98
2023-03-20T13:55:58.732Z,15.95
2023-03-20T13:57:02.945Z,15.57
2023-03-20T13:58:28.657Z,17.38
2023-03-20T14:00:01.199Z,17.10
2023-03-20T14:01:34.804Z,16.70
2023-03-20T14:02:51.257Z,15.57
2023-03-20T14:03:54.260Z,15.53
2023-03-20T14:05:09.788Z,16.83
2023-03-20T14:06:23.259Z,16.32
2023-03-20T14:07:30.908Z,21.05
2023-03-20T14:08:34.992Z,21.45
2023-03-20T14:09:37.744Z,16.13
2023-03-20T14:10:40.066Z,17.38
2023-03-20T14:11:42.016Z,19.32
2023-03-20T14:12:43.703Z,17.77
2023-03-20T14:13:50.438Z,38.67
2023-03-20T14:15:00.276Z,23.85
2023-03-20T14:16:07.605Z,17.58
2023-03-20T14:17:17.513Z,17.75
2023-03-20T14:18:22.964Z,15.48
2023-03-20T14:19:25.444Z,16.77
2023-03-20T14:20:33.044Z,19.53
2023-03-20T14:21:36.349Z,20.43
2023-03-20T14:22:40.641Z,18.35
2023-03-20T14:23:48.097Z,18.03
2023-03-20T14:25:17.067Z,18.92
2023-03-20T14:26:29.537Z,17.48
2023-03-20T14:27:43.732Z,17.77
2023-03-20T14:29:01.999Z,17.75
2023-03-20T14:30:31.716Z,17.00
2023-03-20T14:31:34.790Z,15.78
2023-03-20T14:32:52.993Z,15.48